Time;durP1;ratioP1;P1;durP2;ratioP2;P2;SDS_P1;SDS_P2;PMS_P1;PMS_P2;Temp;Humidity;BMP_temperature;BMP_pressure;BME280_temperature;BME280_humidity;BME280_pressure;Samples;Min_cycle;Max_cycle;Signal;HPM_P1;HPM_P2
2023/03/03 19:44:16;;;;;;;141.13;48.28;;;;;;;;;;7301136;19;20199;-80
2023/03/03 19:46:53;;;;;;;144.95;48.88;;;;;;;;;;7333906;19;20032;-77
2023/03/03 19:49:39;;;;;;;156.05;50.22;;;;;;;;;;7367060;19;20476;-77
2023/03/03 19:52:21;;;;;;;148.10;50.90;;;;;;;;;;7366695;19;20014;-78
2023/03/03 19:54:53;;;;;;;155.30;53.28;;;;;;;;;;7355752;19;20044;-79
2023/03/03 19:57:39;;;;;;;139.02;50.13;;;;;;;;;;7363044;19;20148;-78
2023/03/03 20:00:17;;;;;;;158.98;51.60;;;;;;;;;;7364788;19;20021;-78
2023/03/03 20:02:55;;;;;;;150.75;52.55;;;;;;;;;;7367279;19;20567;-79
2023/03/03 20:05:35;;;;;;;159.35;54.63;;;;;;;;;;7357978;19;20627;-80
2023/03/03 20:08:04;;;;;;;170.27;56.63;;;;;;;;;;7302879;19;20014;-78
2023/03/03 20:10:41;;;;;;;169.05;56.08;;;;;;;;;;7358397;19;20020;-80
2023/03/03 20:13:10;;;;;;;158.85;54.00;;;;;;;;;;7359138;19;20011;-79
2023/03/03 20:15:35;;;;;;;152.02;52.85;;;;;;;;;;7369201;19;20022;-78
2023/03/03 20:18:13;;;;;;;155.20;52.05;;;;;;;;;;7367180;19;20017;-79
2023/03/03 20:20:49;;;;;;;150.70;51.72;;;;;;;;;;7367752;19;20264;-78
2023/03/03 20:23:35;;;;;;;145.70;51.70;;;;;;;;;;7360377;19;20115;-78
2023/03/03 20:26:11;;;;;;;149.40;50.03;;;;;;;;;;7303862;19;20035;-80
2023/03/03 20:28:48;;;;;;;146.35;47.88;;;;;;;;;;7367485;19;20392;-80
2023/03/03 20:31:19;;;;;;;143.73;50.08;;;;;;;;;;7367951;19;20038;-78
2023/03/03 20:33:57;;;;;;;151.82;52.15;;;;;;;;;;7320447;19;20068;-81
2023/03/03 20:36:30;;;;;;;148.55;50.75;;;;;;;;;;7355051;19;20006;-78
2023/03/03 20:39:03;;;;;;;150.18;50.45;;;;;;;;;;7369825;19;20593;-81
2023/03/03 20:41:37;;;;;;;167.20;54.85;;;;;;;;;;7314331;19;20010;-80
2023/03/03 20:44:06;;;;;;;150.23;50.75;;;;;;;;;;7351562;19;20018;-79
2023/03/03 20:46:37;;;;;;;162.88;51.72;;;;;;;;;;7368910;19;20010;-78
2023/03/03 20:49:21;;;;;;;165.10;53.60;;;;;;;;;;7354620;19;20007;-78
2023/03/03 20:51:54;;;;;;;168.13;52.92;;;;;;;;;;7364650;19;20030;-77
2023/03/03 20:54:19;;;;;;;166.30;53.43;;;;;;;;;;7366814;19;21674;-79
2023/03/03 20:57:06;;;;;;;149.52;48.72;;;;;;;;;;7340238;19;20144;-79
2023/03/03 20:59:31;;;;;;;154.65;50.58;;;;;;;;;;7355227;19;20130;-81
2023/03/03 21:01:59;;;;;;;154.48;50.88;;;;;;;;;;7360681;19;20035;-79
2023/03/03 21:04:29;;;;;;;159.32;52.42;;;;;;;;;;7358773;19;20299;-80
2023/03/03 21:06:54;;;;;;;154.65;52.50;;;;;;;;;;7364076;19;20039;-81
2023/03/03 21:09:36;;;;;;;154.35;49.65;;;;;;;;;;7355057;19;20780;-81
2023/03/03 21:12:21;;;;;;;160.15;50.70;;;;;;;;;;7359940;19;20047;-80
2023/03/03 21:14:57;;;;;;;154.48;50.92;;;;;;;;;;7356108;19;20006;-79
2023/03/03 21:17:24;;;;;;;144.82;48.63;;;;;;;;;;7361636;19;20783;-80
2023/03/03 21:19:49;;;;;;;153.40;51.55;;;;;;;;;;7362842;19;20010;-79
2023/03/03 21:22:14;;;;;;;165.65;53.15;;;;;;;;;;7359052;19;20047;-78
2023/03/03 21:24:50;;;;;;;172.38;56.40;;;;;;;;;;7356946;19;20496;-78
2023/03/03 21:27:23;;;;;;;177.18;55.97;;;;;;;;;;7350115;19;20428;-80
2023/03/03 21:30:00;;;;;;;164.48;54.60;;;;;;;;;;7345144;19;20126;-80
2023/03/03 21:32:42;;;;;;;159.98;56.08;;;;;;;;;;7337681;19;20598;-82
2023/03/03 21:35:09;;;;;;;158.63;51.63;;;;;;;;;;7342928;19;20332;-81
2023/03/03 21:37:48;;;;;;;160.18;52.97;;;;;;;;;;7352215;19;20021;-78
2023/03/03 21:40:15;;;;;;;161.65;53.55;;;;;;;;;;7355197;19;20007;-80
2023/03/03 21:42:41;;;;;;;169.40;54.45;;;;;;;;;;7353774;19;20035;-82
2023/03/03 21:45:10;;;;;;;154.05;53.83;;;;;;;;;;7340304;19;20014;-83
2023/03/03 21:47:36;;;;;;;202.88;59.50;;;;;;;;;;7354275;19;20023;-79
2023/03/03 21:50:01;;;;;;;202.65;60.72;;;;;;;;;;7335835;19;20806;-82
2023/03/03 21:52:26;;;;;;;205.73;57.67;;;;;;;;;;7353196;19;20064;-80
2023/03/03 21:54:51;;;;;;;198.23;58.92;;;;;;;;;;7363332;19;20035;-78
2023/03/03 21:57:17;;;;;;;166.15;55.88;;;;;;;;;;7362082;19;20006;-83
2023/03/03 21:59:42;;;;;;;169.45;56.80;;;;;;;;;;7345823;19;20039;-81
2023/03/03 22:02:07;;;;;;;160.57;51.03;;;;;;;;;;7366565;19;20054;-78
2023/03/03 22:04:33;;;;;;;172.93;52.97;;;;;;;;;;7374629;19;20422;-81
2023/03/03 22:06:58;;;;;;;174.95;54.15;;;;;;;;;;7370361;19;20009;-81
2023/03/03 22:09:24;;;;;;;165.88;55.33;;;;;;;;;;7352316;19;20011;-79
2023/03/03 22:11:49;;;;;;;185.88;55.20;;;;;;;;;;7371331;19;20516;-80
2023/03/03 22:14:14;;;;;;;189.43;58.25;;;;;;;;;;7369479;19;20018;-78
2023/03/03 22:16:39;;;;;;;193.30;57.45;;;;;;;;;;7371227;19;20396;-81
2023/03/03 22:19:04;;;;;;;184.80;53.60;;;;;;;;;;7367669;19;20049;-82
2023/03/03 22:21:30;;;;;;;187.60;55.03;;;;;;;;;;7373797;19;20494;-78
2023/03/03 22:23:56;;;;;;;179.20;56.10;;;;;;;;;;7369428;19;20010;-84
2023/03/03 22:26:21;;;;;;;169.18;54.58;;;;;;;;;;7359161;19;20029;-80
2023/03/03 22:28:47;;;;;;;185.68;57.40;;;;;;;;;;7364493;19;20447;-79
2023/03/03 22:31:13;;;;;;;166.65;53.78;;;;;;;;;;7372530;19;20022;-79
2023/03/03 22:33:38;;;;;;;144.68;50.03;;;;;;;;;;7375167;19;20443;-80
2023/03/03 22:36:03;;;;;;;148.93;50.60;;;;;;;;;;7360454;19;20454;-83
2023/03/03 22:38:29;;;;;;;154.80;51.58;;;;;;;;;;7353777;19;20760;-78
2023/03/03 22:40:54;;;;;;;140.75;48.38;;;;;;;;;;7362462;19;20003;-80
2023/03/03 22:43:19;;;;;;;156.20;53.15;;;;;;;;;;7354924;19;20070;-79
2023/03/03 22:45:45;;;;;;;156.30;52.78;;;;;;;;;;7363884;19;20010;-78
2023/03/03 22:48:10;;;;;;;165.27;53.78;;;;;;;;;;7357159;19;20006;-80
2023/03/03 22:50:38;;;;;;;154.57;51.75;;;;;;;;;;7363249;19;20007;-79
2023/03/03 22:53:03;;;;;;;156.73;52.20;;;;;;;;;;7353805;19;20100;-79
2023/03/03 22:55:28;;;;;;;147.48;51.63;;;;;;;;;;7367153;19;20086;-79
2023/03/03 22:57:54;;;;;;;164.60;56.17;;;;;;;;;;7368122;19;20450;-79
2023/03/03 23:02:54;;;;;;;161.35;50.88;;;;;;;;;;7324060;19;20275;-77
2023/03/03 23:05:19;;;;;;;158.38;52.17;;;;;;;;;;7368249;19;20104;-79
2023/03/03 23:07:44;;;;;;;163.27;51.67;;;;;;;;;;7378330;19;20017;-80
2023/03/03 23:10:09;;;;;;;157.95;54.92;;;;;;;;;;7375319;19;20440;-77
2023/03/03 23:12:35;;;;;;;171.43;56.67;;;;;;;;;;7377308;19;20021;-82
2023/03/03 23:15:00;;;;;;;168.00;58.25;;;;;;;;;;7376088;19;20002;-77
2023/03/03 23:17:25;;;;;;;174.90;56.33;;;;;;;;;;7370844;19;20041;-79
2023/03/03 23:19:50;;;;;;;173.10;57.00;;;;;;;;;;7368811;19;20011;-78
2023/03/03 23:22:16;;;;;;;165.88;56.88;;;;;;;;;;7371095;19;20515;-78
2023/03/03 23:24:42;;;;;;;173.70;57.42;;;;;;;;;;7376239;19;20011;-80
2023/03/03 23:27:07;;;;;;;162.48;55.63;;;;;;;;;;7374601;19;20014;-78
2023/03/03 23:29:33;;;;;;;166.18;54.67;;;;;;;;;;7368860;19;20246;-77
2023/03/03 23:31:58;;;;;;;171.75;57.42;;;;;;;;;;7376270;19;20018;-77
2023/03/03 23:34:23;;;;;;;159.05;56.20;;;;;;;;;;7368830;19;20003;-77
2023/03/03 23:36:48;;;;;;;158.98;55.05;;;;;;;;;;7369762;19;20036;-79
2023/03/03 23:39:14;;;;;;;149.73;51.37;;;;;;;;;;7372438;19;20016;-79
2023/03/03 23:41:39;;;;;;;152.18;50.72;;;;;;;;;;7375163;19;20737;-78
2023/03/03 23:44:04;;;;;;;166.10;54.22;;;;;;;;;;7375304;19;20015;-79
2023/03/03 23:46:30;;;;;;;163.65;53.28;;;;;;;;;;7377046;19;20446;-80
2023/03/03 23:48:55;;;;;;;185.43;59.33;;;;;;;;;;7376768;19;20027;-79
2023/03/03 23:51:20;;;;;;;165.55;52.90;;;;;;;;;;7367046;19;20267;-77
2023/03/03 23:53:45;;;;;;;141.27;51.35;;;;;;;;;;7376193;19;20047;-77
2023/03/03 23:56:10;;;;;;;164.00;55.47;;;;;;;;;;7371643;19;20020;-82
2023/03/03 23:58:35;;;;;;;152.88;50.20;;;;;;;;;;7374336;19;20018;-78
